Weather observations for the past three days for
Osceola Municipal Airport
Metric (Imperial)
Date Time (cdt) Wind (kph) Vis. (km) Weather Sky Cond. Temperature (ºC) Relative Humidity Wind Chill (°C) Heat Index (°C) Pressure Precipitation (cm)
Air Dwpt 6 hour altimeter (cm) sea level (mb) 1 hr 3 hr 6 hr
Max. Min.
06 17:15 NW 11 11.27 Partly Cloudy SCT090 14.1 -5.7 25% 76.28 0.0
06 16:35 NW 20 G 26 16.09 Mostly Cloudy BKN080 13.4 -5.3 27% 76.28 0.0
06 16:15 NW 17 G 28 11.27 Mostly Cloudy BKN080 BKN090 13.7 -6 25% 76.28 0.0
06 15:55 NW 19 G 30 11.27 Partly Cloudy SCT080 SCT090 13.8 -5.9 25% 76.3 0.0
06 15:35 NW 19 G 39 11.27 Mostly Cloudy BKN080 14.4 -5.7 25% 76.3 0.0
06 15:15 W 19 G 28 11.27 Mostly Cloudy BKN080 14.4 -5.2 26% 76.33 0.0
06 14:55 NW 19 G 35 8.05 Partly Cloudy with Haze SCT080 13.8 -6 25% 76.33 0.0
06 14:35 NW 19 G 30 11.27 Partly Cloudy SCT070 13.8 -5.4 26% 76.35 0.0
06 14:15 W 9 G 15 11.27 Partly Cloudy SCT070 13.5 -4.9 28% 76.35 0.0
06 13:55 W 17 G 31 11.27 Mostly Cloudy BKN070 13.7 -4.4 28% 76.35 0.0
06 13:35 W 22 G 31 11.27 Mostly Cloudy BKN070 13.3 -4.3 29% 76.35 0.0
06 13:15 NW 20 G 30 11.27 Mostly Cloudy BKN070 12.4 -5.2 29% 76.35 0.0
06 12:55 W 19 11.27 Mostly Cloudy BKN070 12.5 -4.3 13.5 4.7 31% 76.35 0.0
06 12:35 NW 22 G 31 11.27 Mostly Cloudy BKN070 13.3 -4.4 29% 76.38 0.0
06 12:15 NW 20 G 41 11.27 Mostly Cloudy BKN060 11.8 -5 31% 76.4 0.0
06 11:55 W 15 G 28 11.27 Mostly Cloudy BKN060 12 -3.6 34% 76.4 0.0
06 11:35 NW 17 G 33 16.09 Partly Cloudy SCT060 12 -5.4 29% 76.4 0.0
06 11:15 NW 22 16.09 Partly Cloudy SCT060 11.9 -4.2 32% 76.38 0.0
06 10:55 NW 17 G 28 11.27 Partly Cloudy SCT060 11.5 -3.8 34% 76.38 0.0
06 10:35 NW 13 11.27 Fair CLR 11.1 -3.9 35% 76.38 0.0
06 10:15 NW 15 11.27 Fair CLR 10.7 -3.5 37% 76.38 0.0
06 09:55 W 15 8.05 Fair with Haze CLR 10 -2 43% 8 76.38 0.0
06 09:35 N 9 11.27 Fair CLR 9.2 -2.7 43% 8 76.38 0.0
06 09:15 N 9 11.27 Fair CLR 9.2 -2.9 43% 8 76.38 0.0
06 08:55 N 7 11.27 Fair CLR 8.7 -2.9 44% 8 76.35 0.0
06 08:35 N 9 11.27 Fair CLR 8 -2.4 48% 7 76.33 0.0
06 08:15 NW 11 8.05 Fair with Haze CLR 6.9 -1.8 54% 5 76.33 0.0
06 07:55 NW 9 8.05 Fair with Haze CLR 6.2 -1.7 57% 5 76.3 0.0
06 07:35 NW 9 11.27 Fair CLR 5.3 -1.5 62% 3 76.3 0.0
06 06:55 NW 9 11.27 Fair CLR 4.8 -1.8 7 4.3 63% 3 76.25 0.0
06 06:35 NW 9 11.27 Fair CLR 4.5 -1.8 64% 3 76.23 0.0
06 06:15 NW 9 11.27 Fair CLR 4.6 -2 63% 3 76.23 0.0
06 05:55 NW 7 11.27 Fair CLR 5 -2.5 59% 4 76.23 0.0
06 05:35 NW 9 16.09 Fair CLR 5 -2.5 59% 3 76.17 0.0
06 05:15 NW 9 16.09 Fair CLR 5 -2.5 59% 3 76.17 0.0
06 04:55 NW 9 16.09 Fair CLR 5.1 -2.2 60% 3 76.17 0.0
06 04:35 NW 11 16.09 Fair CLR 5 -2.1 60% 3 76.15 0.0
06 04:15 W 9 11.27 Fair CLR 4.4 -1.4 66% 2 76.15 0.0
06 03:55 NW 9 16.09 Fair CLR 4.6 -1.8 64% 3 76.12 0.0
06 03:35 NW 6 11.27 Fair CLR 5.3 -2.6 57% 76.1 0.0
06 03:15 NW 6 16.09 Fair CLR 5.2 -2.7 57% 76.1 0.0
06 02:55 NW 9 16.09 Fair CLR 5.6 -2.9 55% 4 76.12 0.0
06 02:35 NW 7 11.27 Fair CLR 5.6 -2.7 56% 4 76.1 0.0
06 02:15 NW 11 16.09 Fair CLR 6.2 -2.9 53% 4 76.1 0.0
06 01:55 NW 11 16.09 Fair CLR 6.6 -2.6 52% 5 76.12 0.0
06 01:35 NW 9 16.09 Fair CLR 6.7 -2.1 54% 5 76.12 0.0
06 01:15 W 9 16.09 Fair CLR 6.5 -1.2 58% 5 76.12 0.0
06 00:55 W 9 16.09 Fair CLR 6.9 -2 13.3 6.7 53% 5 76.1 0.0
06 00:35 NW 9 16.09 Fair CLR 8 -2.7 47% 7 76.05 0.0
06 00:15 NW 9 16.09 Fair CLR 8.3 -3 45% 7 76.05 0.0
05 23:55 NW 9 11.27 Fair CLR 8.5 -2.9 45% 7 76.02 0.0
05 23:35 NW 11 16.09 Fair CLR 9 -3.5 42% 8 76.02 0.0
05 23:15 NW 11 16.09 Fair CLR 9.4 -3.6 40% 8 76 0.0
05 22:55 NW 13 11.27 Fair CLR 9.6 -3.8 39% 8 76.02 0.0
05 22:35 NW 11 11.27 Fair CLR 9.5 -3.6 40% 8 75.97 0.0
05 22:15 NW 11 11.27 Fair CLR 9.5 -3.1 41% 8 75.97 0.0
05 21:55 NW 9 11.27 Fair CLR 10 -3.5 39% 9 75.95 0.0
05 21:35 NW 9 16.09 Fair CLR 10.9 -4.1 35% 75.95 0.0
05 21:15 NW 13 11.27 Partly Cloudy SCT120 11.2 -4.3 34% 75.92 0.0
05 20:55 NW 11 16.09 Fair CLR 11.5 -4.4 33% 75.92 0.0
05 20:35 NW 17 11.27 Partly Cloudy SCT120 11.8 -4.5 32% 75.92 0.0
05 20:15 NW 17 11.27 Partly Cloudy SCT120 12.1 -4.5 31% 75.9 0.0
05 19:55 NW 11 8.05 Fair with Haze CLR 12.2 -4.1 32% 75.87 0.0
05 19:35 NW 19 11.27 Fair CLR 12.7 -4.8 29% 75.84 0.0
05 19:15 NW 17 11.27 Fair CLR 13 -4.6 29% 75.84 0.0
05 18:55 NW 20 G 28 11.27 Fair CLR 13.3 -4.7 15.4 12.6 29% 75.84 0.0
05 18:35 NW 24 G 31 11.27 Partly Cloudy SCT070 13.7 -4.5 28% 75.82 0.0
05 18:15 NW 15 11.27 Partly Cloudy SCT070 14.1 -2.4 32% 75.79 0.0
05 17:55 NW 17 G 28 11.27 Partly Cloudy SCT070 14.3 -2.7 31% 75.79 0.0
05 17:35 W 19 11.27 Partly Cloudy SCT070 14.8 -1.9 32% 75.79 0.0
05 17:15 W 15 11.27 Fair CLR 14.7 -1.4 33% 75.82 0.0
05 16:55 NW 17 11.27 Partly Cloudy SCT070 15 -1.5 32% 75.82 0.0
05 16:35 W 19 8.05 Partly Cloudy with Haze SCT055 SCT070 15.4 -1.5 32% 75.82 0.0
05 16:15 W 11 11.27 Mostly Cloudy BKN055 BKN070 14.3 -0.2 37% 75.82 0.0
05 15:55 W 13 16.09 Partly Cloudy SCT055 SCT070 14 0.1 39% 75.84 0.0
05 15:35 N 7 11.27 Fair CLR 14 0.3 39% 75.84 0.0
05 15:15 W 6 11.27 Fair CLR 13.6 0 40% 75.87 0.0
05 14:55 NW 9 8.05 Fair with Haze CLR 13.1 -0.1 41% 75.9 0.0
05 14:35 SW 7 11.27 Partly Cloudy SCT055 13 0.1 41% 75.92 0.0
05 14:15 NW 7 16.09 Partly Cloudy SCT055 12.8 0.1 42% 75.9 0.0
05 13:55 W 11 11.27 Partly Cloudy SCT055 13 -0.1 41% 75.9 0.0
05 13:35 W 7 11.27 Partly Cloudy SCT055 13.2 -0.2 40% 75.92 0.0
05 13:15 SW 7 11.27 Partly Cloudy SCT050 13.2 -0.1 40% 75.92 0.0
05 12:55 SW 6 11.27 Fair CLR 12.5 0 12.6 8.1 43% 75.95 0.0
05 12:35 SW 9 8.05 Partly Cloudy with Haze SCT120 12.2 -0.5 42% 75.95 0.0
05 11:55 Calm 11.27 Fair CLR 12.3 -1.9 38% 75.97 0.0
05 11:35 Calm 16.09 Fair CLR 12.4 -1.3 39% 75.97 0.0
05 11:15 Calm 11.27 Fair CLR 12.4 -0.1 42% 75.95 0.0
05 10:55 SW 7 11.27 Fair CLR 12.4 -0.6 41% 75.92 0.0
05 10:35 Calm 11.27 Fair CLR 11.9 -0.9 41% 75.92 0.0
05 10:15 Calm 16.09 Fair CLR 11.2 -0.9 43% 75.92 0.0
05 09:55 Calm 16.09 Fair CLR 11 1.2 51% 75.92 0.0
05 09:35 W 6 16.09 Fair CLR 10.5 3.1 60% 75.92 0.0
05 09:15 Calm 16.09 Fair CLR 10.1 3.6 64% 75.92 0.0
05 08:35 Calm 16.09 Fair CLR 9.5 3.2 65% 75.87 0.0
05 08:15 Calm 16.09 Fair CLR 9.5 3.2 65% 75.84 0.0
05 07:35 N 6 16.09 Fair CLR 8.5 5 79% 75.79 0.0
05 07:15 N 6 16.09 Fair CLR 8.1 5.7 85% 75.79 0.0
05 06:55 Calm 16.09 Partly Cloudy SCT120 8 5.9 12 8 87% 75.82 0.0
05 06:15 Calm 16.09 Partly Cloudy SCT120 8.5 5.6 82% 75.84 0.0
05 05:55 Calm 16.09 Mostly Cloudy BKN120 8.3 5.1 80% 75.84 0.0
05 05:35 Calm 16.09 Overcast BKN090 OVC110 8.4 5 79% 75.82 0.0
05 05:15 SW 6 16.09 Overcast OVC090 8.6 4.9 78% 75.79 0.0
05 04:55 Calm 16.09 Overcast OVC090 9 3.1 67% 75.74 0.0
05 04:35 Calm 16.09 Overcast OVC080 8.8 3.4 69% 75.74 0.0
05 04:15 NE 7 16.09 Overcast OVC080 8.9 4.2 73% 8 75.69 0.0
05 03:55 Calm 16.09 Light Rain OVC080 8.8 4 72% 75.69 0.0
05 03:35 Calm 16.09 Overcast SCT043 SCT050 OVC080 9 3.4 68% 75.67 0.0
05 03:15 N 13 16.09 Light Rain SCT043 SCT050 OVC080 9.5 2.6 62% 8 75.67 0.0
05 02:55 Calm 16.09 Light Rain OVC090 10.7 0.1 48% 75.67 0.0
05 02:35 N 15 16.09 Overcast OVC090 10.7 0 48% 75.64 0.0
05 02:15 N 22 G 33 16.09 Overcast BKN090 OVC110 10.8 -0.2 47% 75.64 0.0
05 01:55 N 20 G 28 16.09 Overcast BKN090 OVC110 11 -0.6 45% 75.62 0.0
05 01:35 N 24 G 31 16.09 Partly Cloudy SCT100 11 -1.2 43% 75.62 0.0
05 01:15 N 26 G 35 16.09 Mostly Cloudy BKN100 11.3 -1.4 42% 75.59 0.0
05 00:55 NW 33 G 39 16.09 Mostly Cloudy and Breezy BKN100 12 -1.3 24.1 12 40% 75.62 0.0
05 00:35 N 20 16.09 Overcast OVC100 12.5 -1.2 39% 75.62 0.0
05 00:15 N 30 G 41 16.09 Overcast OVC110 12.5 -0.8 40% 75.59 0.0
04 23:55 N 30 G 46 16.09 Overcast OVC110 13.1 -0.7 39% 75.54 0.0
04 23:35 N 24 G 37 16.09 Mostly Cloudy BKN120 13.2 -1.2 37% 75.54 0.0
04 23:15 N 22 G 37 16.09 Partly Cloudy SCT120 13.1 -1.1 38% 75.51 0.0
04 22:55 N 26 G 41 16.09 Fair CLR 13.4 -0.6 38% 75.49 0.0
04 22:35 NW 20 16.09 Fair CLR 13.7 -0.4 38% 75.54 0.0
04 22:15 NW 26 G 41 16.09 Partly Cloudy SCT110 14.2 -0.9 36% 75.51 0.0
04 21:55 NW 24 G 43 16.09 Partly Cloudy SCT120 15.1 -1 33% 75.49 0.0
04 21:35 NW 33 G 46 16.09 Partly Cloudy and Breezy SCT120 15.8 -1.1 32% 75.46 0.0
04 21:15 NW 33 G 46 16.09 Fair and Breezy CLR 17 -1.5 28% 75.41 0.0
04 20:55 NW 39 G 50 16.09 Fair and Breezy CLR 17.7 -1.5 27% 75.39 0.0
04 20:35 NW 22 G 37 16.09 Fair CLR 18.6 -1 27% 75.31 0.0
04 20:15 N 26 G 44 16.09 Fair CLR 19.6 -0.6 26% 75.26 0.0
04 19:55 NW 31 G 44 11.27 Fair CLR 21 -0.2 24% 75.23 0.0
04 19:35 N 31 G 41 11.27 Fair CLR 22 0.2 24% 75.18 0.0
04 19:15 NW 19 G 30 11.27 Fair CLR 23 1.4 24% 75.16 0.0
04 18:55 N 30 G 39 11.27 Fair CLR 24.1 0.9 28.5 24.1 22% 25 75.13 0.0
04 18:35 N 28 G 43 16.09 Fair CLR 25 2.1 22% 25 75.13 0.0
04 18:15 NW 31 G 39 16.09 Fair CLR 26.3 3.4 23% 26 75.08 0.0
04 17:55 NW 24 G 31 16.09 Fair CLR 27 3.6 22% 26 75.08 0.0
04 17:35 NW 20 11.27 Fair CLR 27.5 3.5 21% 26 75.06 0.0
04 17:15 W 19 11.27 Fair CLR 27.3 0.8 18% 26 75.03 0.0
04 16:55 W 24 G 31 16.09 Fair CLR 27.6 0.7 17% 26 75.03 0.0
04 16:30 W 20 G 33 16.09 Partly Cloudy SCT100 28 0.8 17% 27 75.03 0.0
04 16:15 W 28 G 37 11.27 Partly Cloudy SCT100 27.9 2 19% 27 75.03 0.0
04 15:55 W 19 G 35 11.27 Partly Cloudy SCT095 27.3 3.9 22% 26 75.03 0.0
04 15:35 W 19 11.27 Partly Cloudy SCT095 28.3 4.9 22% 27 75.06 0.0
04 15:15 W 19 G 30 11.27 Partly Cloudy SCT095 27.5 4.3 23% 26 75.06 0.0
04 14:55 W 24 G 33 16.09 Partly Cloudy SCT085 27.9 5.7 24% 27 75.06 0.0
04 14:35 W 20 G 28 16.09 Partly Cloudy SCT085 27.9 6.1 25% 27 75.08 0.0
04 14:15 SW 20 G 30 16.09 Partly Cloudy SCT085 SCT100 28.4 5.6 23% 27 75.08 0.0
04 13:55 W 19 G 30 16.09 Fair CLR 27.7 5.7 25% 27 75.08 0.0
04 13:35 SW 19 G 26 16.09 Fair CLR 27.7 6.6 26% 27 75.11 0.0
04 13:15 SW 17 G 28 16.09 Fair CLR 27.1 7.9 30% 26 75.11 0.0
04 12:55 SW 20 G 28 11.27 Fair CLR 26.7 7.5 26.9 12.6 30% 26 75.11 0.0
04 12:35 SW 17 11.27 Fair CLR 26.5 8.5 32% 26 75.11 0.0
04 12:15 SW 15 11.27 Fair CLR 26.4 9.1 34% 26 75.11 0.0
04 11:55 S 17 16.09 Fair CLR 25.9 7.6 31% 26 75.11 0.0
04 11:35 SW 15 11.27 Fair CLR 25.1 8.1 34% 26 75.11 0.0
04 11:15 SW 15 11.27 Fair CLR 24.5 9.3 38% 25 75.11 0.0
04 10:55 SW 9 11.27 Fair CLR 23.5 8.8 39% 75.13 0.0
04 10:35 SW 15 16.09 Fair CLR 22.8 9.3 42% 75.13 0.0
04 10:15 SW 13 11.27 Fair CLR 21.9 9.2 44% 75.13 0.0
04 09:55 SW 17 11.27 Fair CLR 21.2 9 46% 75.16 0.0
04 09:35 SW 22 11.27 Fair CLR 20.5 8 45% 75.16 0.0
04 09:15 SW 22 11.27 Fair CLR 20.3 8.2 46% 75.16 0.0
04 08:55 SW 15 11.27 Fair CLR 19.2 8.4 50% 75.16 0.0
04 08:35 S 15 16.09 Fair CLR 18.1 8.3 53% 75.18 0.0
04 08:15 S 15 11.27 Fair CLR 16.3 7.2 55% 75.18 0.0
04 07:55 S 13 11.27 Fair CLR 15.6 6.7 56% 75.18 0.0
04 07:35 S 13 11.27 Fair CLR 14.7 6.2 57% 75.18 0.0
04 07:15 S 13 11.27 Fair CLR 13.6 5.7 59% 75.18 0.0
04 06:55 S 13 16.09 Fair CLR 12.5 5.4 12.5 9.9 62% 75.21 0.0
04 06:35 S 11 16.09 Fair CLR 11.1 5.1 67% 75.21 0.0
04 06:15 S 9 16.09 Fair CLR 10.4 5 69% 75.21 0.0
04 05:55 S 9 16.09 Fair CLR 10.5 4.5 67% 75.23 0.0
04 05:35 S 9 16.09 Fair CLR 10.1 4.2 67% 75.23 0.0
04 05:15 S 9 16.09 Fair CLR 11.4 4.4 62% 75.26 0.0
04 04:55 S 11 16.09 Fair CLR 11.2 4.4 63% 75.26 0.0
04 04:35 S 11 16.09 Fair CLR 12.2 4.2 58% 75.31 0.0
04 04:15 S 11 16.09 Fair CLR 11.9 4.3 60% 75.34 0.0
04 03:55 S 11 16.09 Fair CLR 10.9 4.5 65% 75.36 0.0
04 03:35 S 9 16.09 Fair CLR 11.4 4.5 63% 75.36 0.0
04 03:15 S 11 16.09 Fair CLR 11.6 4.3 61% 75.39 0.0
04 02:55 S 7 16.09 Fair CLR 11 4.2 63% 75.41 0.0
04 02:35 S 9 16.09 Fair CLR 12.3 4 57% 75.41 0.0
04 02:15 SW 7 16.09 Fair CLR 12.1 4.1 58% 75.44 0.0
04 01:55 S 9 16.09 Fair CLR 11.7 4.5 62% 75.46 0.0
04 01:35 S 9 16.09 Fair CLR 11.9 4.5 61% 75.49 0.0
04 01:15 SW 9 16.09 Fair CLR 11.6 4.8 63% 75.51 0.0
04 00:55 SW 7 16.09 Fair CLR 12.1 4.4 21.7 12 60% 75.54 0.0
04 00:35 SW 9 16.09 Fair CLR 12.4 4.4 58% 75.54 0.0
04 00:15 SW 7 16.09 Fair CLR 13.3 3.5 52% 75.54 0.0
03 23:55 SW 9 16.09 Fair CLR 12.7 4 56% 75.54 0.0
03 23:35 SW 7 16.09 Fair CLR 15 2.6 44% 75.54 0.0
03 23:15 SW 7 16.09 Fair CLR 14.4 2.9 46% 75.57 0.0
03 22:55 SW 9 11.27 Fair CLR 13.3 4 54% 75.59 0.0
03 22:35 SW 9 16.09 Fair CLR 13.2 3.9 54% 75.62 0.0
03 22:15 SW 9 16.09 Fair CLR 14.4 3.4 48% 75.62 0.0
03 21:55 S 9 11.27 Fair CLR 13.8 4.1 52% 75.64 0.0
03 21:35 SW 9 16.09 Fair CLR 15 3.3 46% 75.62 0.0
03 21:15 SW 11 16.09 Fair CLR 15.6 3.2 44% 75.62 0.0
03 20:55 SW 11 11.27 Fair CLR 15.6 3.8 46% 75.62 0.0
03 20:35 SW 7 16.09 Fair CLR 17.1 3.4 40% 75.62 0.0
03 20:15 SW 7 8.05 Fair with Haze CLR 18.5 2.8 35% 75.59 0.0
03 19:55 SW 6 11.27 Fair CLR 19.2 1.9 32% 75.62 0.0
03 19:35 SW 9 16.09 Fair CLR 20.1 1.4 29% 75.62 0.0
03 19:15 W 9 16.09 Fair CLR 21.1 0.9 26% 75.62 0.0
03 18:55 W 13 11.27 Fair CLR 21.5 1.5 24 20.6 27% 75.64 0.0
03 18:35 W 13 16.09 Fair CLR 21.2 1.4 27% 75.64 0.0
03 18:15 W 15 16.09 Fair CLR 22.1 1.2 25% 75.64 0.0
03 17:55 W 17 16.09 Fair CLR 22.8 0.5 23% 75.67 0.0
03 17:35 W 13 16.09 Fair CLR 22.3 0.4 23% 75.67 0.0
Date Time (cdt) Wind (kph) Vis. (km) Weather Sky Cond. Air Dwpt Max. Min. Relative Humidity Wind Chill (°C) Heat Index (°C) altimeter (cm) sea level (mb) 1 hr 3 hr 6 hr
6 hour
Temperature (ºC) Pressure Precipitation (cm)